sensor_id;sensor_type;location;lat;lon;timestamp;pressure;altitude;pressure_sealevel;temperature;humidity
38912;BME280;28444;48.056;14.408;2023-07-31T00:01:13;97664.50;;;17.80;89.28
38912;BME280;28444;48.056;14.408;2023-07-31T00:03:40;97673.50;;;17.81;89.54
38912;BME280;28444;48.056;14.408;2023-07-31T00:06:07;97667.75;;;17.77;89.99
38912;BME280;28444;48.056;14.408;2023-07-31T00:08:33;97663.78;;;17.80;89.25
38912;BME280;28444;48.056;14.408;2023-07-31T00:11:00;97671.59;;;17.72;88.94
38912;BME280;28444;48.056;14.408;2023-07-31T00:13:26;97669.81;;;17.76;89.28
38912;BME280;28444;48.056;14.408;2023-07-31T00:15:53;97671.13;;;17.75;89.36
38912;BME280;28444;48.056;14.408;2023-07-31T00:18:20;97671.13;;;17.75;89.08
38912;BME280;28444;48.056;14.408;2023-07-31T00:20:46;97668.34;;;17.75;89.38
38912;BME280;28444;48.056;14.408;2023-07-31T00:23:13;97668.59;;;17.79;88.70
38912;BME280;28444;48.056;14.408;2023-07-31T00:25:40;97671.47;;;17.82;88.45
38912;BME280;28444;48.056;14.408;2023-07-31T00:28:06;97667.84;;;17.79;88.45
38912;BME280;28444;48.056;14.408;2023-07-31T00:30:33;97667.97;;;17.81;88.53
38912;BME280;28444;48.056;14.408;2023-07-31T00:33:00;97669.81;;;17.76;88.15
38912;BME280;28444;48.056;14.408;2023-07-31T00:35:26;97675.78;;;17.85;87.94
38912;BME280;28444;48.056;14.408;2023-07-31T00:37:53;97674.94;;;17.82;88.27
38912;BME280;28444;48.056;14.408;2023-07-31T00:40:20;97664.13;;;17.74;88.82
38912;BME280;28444;48.056;14.408;2023-07-31T00:42:46;97669.31;;;17.80;89.10
38912;BME280;28444;48.056;14.408;2023-07-31T00:45:13;97665.84;;;17.79;89.58
38912;BME280;28444;48.056;14.408;2023-07-31T00:47:39;97666.63;;;17.82;89.37
38912;BME280;28444;48.056;14.408;2023-07-31T00:50:07;97670.53;;;17.77;90.30
38912;BME280;28444;48.056;14.408;2023-07-31T00:52:35;97677.50;;;17.78;90.06
38912;BME280;28444;48.056;14.408;2023-07-31T00:55:02;97667.34;;;17.83;90.49
38912;BME280;28444;48.056;14.408;2023-07-31T00:57:29;97677.59;;;17.80;91.00
38912;BME280;28444;48.056;14.408;2023-07-31T00:59:56;97666.19;;;17.74;91.18
38912;BME280;28444;48.056;14.408;2023-07-31T01:02:23;97670.38;;;17.75;91.63
38912;BME280;28444;48.056;14.408;2023-07-31T01:04:50;97663.28;;;17.72;92.21
38912;BME280;28444;48.056;14.408;2023-07-31T01:12:45;97667.63;;;17.75;92.39
38912;BME280;28444;48.056;14.408;2023-07-31T01:15:13;97670.06;;;17.69;91.67
38912;BME280;28444;48.056;14.408;2023-07-31T01:17:41;97668.22;;;17.73;91.35
38912;BME280;28444;48.056;14.408;2023-07-31T01:20:20;97665.97;;;17.70;91.01
38912;BME280;28444;48.056;14.408;2023-07-31T01:26:21;97661.66;;;17.67;89.20
38912;BME280;28444;48.056;14.408;2023-07-31T01:29:55;97666.34;;;17.64;88.48
38912;BME280;28444;48.056;14.408;2023-07-31T01:31:49;97665.34;;;17.71;86.72
38912;BME280;28444;48.056;14.408;2023-07-31T01:34:17;97666.13;;;17.60;86.72
38912;BME280;28444;48.056;14.408;2023-07-31T01:36:45;97664.91;;;17.63;86.30
38912;BME280;28444;48.056;14.408;2023-07-31T01:39:12;97659.59;;;17.67;84.55
38912;BME280;28444;48.056;14.408;2023-07-31T01:41:38;97656.97;;;17.69;83.09
38912;BME280;28444;48.056;14.408;2023-07-31T01:44:05;97665.41;;;17.60;83.77
38912;BME280;28444;48.056;14.408;2023-07-31T01:46:32;97658.34;;;17.56;83.82
38912;BME280;28444;48.056;14.408;2023-07-31T01:48:59;97658.34;;;17.56;83.43
38912;BME280;28444;48.056;14.408;2023-07-31T01:51:25;97658.25;;;17.54;81.25
38912;BME280;28444;48.056;14.408;2023-07-31T01:53:52;97662.22;;;17.51;80.79
38912;BME280;28444;48.056;14.408;2023-07-31T01:56:18;97660.16;;;17.52;79.61
38912;BME280;28444;48.056;14.408;2023-07-31T01:58:45;97660.28;;;17.54;79.37
38912;BME280;28444;48.056;14.408;2023-07-31T02:01:12;97655.00;;;17.46;79.35
38912;BME280;28444;48.056;14.408;2023-07-31T02:03:38;97650.09;;;17.45;79.62
38912;BME280;28444;48.056;14.408;2023-07-31T02:06:05;97655.97;;;17.51;77.50
38912;BME280;28444;48.056;14.408;2023-07-31T02:08:32;97645.63;;;17.51;76.89
38912;BME280;28444;48.056;14.408;2023-07-31T02:10:58;97647.69;;;17.51;75.90
38912;BME280;28444;48.056;14.408;2023-07-31T02:13:25;97643.94;;;17.46;76.24
38912;BME280;28444;48.056;14.408;2023-07-31T02:15:51;97649.47;;;17.46;75.76
38912;BME280;28444;48.056;14.408;2023-07-31T02:18:18;97651.22;;;17.40;75.15
38912;BME280;28444;48.056;14.408;2023-07-31T02:20:51;97645.44;;;17.36;75.31
38912;BME280;28444;48.056;14.408;2023-07-31T02:23:18;97649.66;;;17.37;75.70
38912;BME280;28444;48.056;14.408;2023-07-31T02:25:46;97649.22;;;17.28;76.02
38912;BME280;28444;48.056;14.408;2023-07-31T02:28:13;97651.97;;;17.28;75.67
38912;BME280;28444;48.056;14.408;2023-07-31T02:30:39;97649.59;;;17.23;76.15
38912;BME280;28444;48.056;14.408;2023-07-31T02:33:07;97652.13;;;17.19;75.33
38912;BME280;28444;48.056;14.408;2023-07-31T02:35:33;97656.44;;;17.22;74.71
38912;BME280;28444;48.056;14.408;2023-07-31T02:38:00;97646.94;;;17.25;75.15
38912;BME280;28444;48.056;14.408;2023-07-31T02:40:26;97648.66;;;17.18;75.51
38912;BME280;28444;48.056;14.408;2023-07-31T02:42:53;97649.84;;;17.15;75.55
38912;BME280;28444;48.056;14.408;2023-07-31T02:45:20;97647.19;;;17.17;76.25
38912;BME280;28444;48.056;14.408;2023-07-31T02:47:46;97648.19;;;17.10;75.54
38912;BME280;28444;48.056;14.408;2023-07-31T02:50:13;97646.16;;;17.11;75.33
38912;BME280;28444;48.056;14.408;2023-07-31T02:52:39;97647.00;;;17.01;75.41
38912;BME280;28444;48.056;14.408;2023-07-31T02:55:06;97646.78;;;16.97;75.92
38912;BME280;28444;48.056;14.408;2023-07-31T02:57:33;97645.22;;;16.94;75.74
38912;BME280;28444;48.056;14.408;2023-07-31T03:00:00;97644.16;;;16.99;75.91
38912;BME280;28444;48.056;14.408;2023-07-31T03:02:27;97648.38;;;16.89;76.37
38912;BME280;28444;48.056;14.408;2023-07-31T03:04:53;97646.59;;;16.81;76.17
38912;BME280;28444;48.056;14.408;2023-07-31T03:07:20;97651.13;;;16.77;76.19
38912;BME280;28444;48.056;14.408;2023-07-31T03:09:47;97649.00;;;16.75;76.65
38912;BME280;28444;48.056;14.408;2023-07-31T03:12:13;97649.59;;;16.74;76.14
38912;BME280;28444;48.056;14.408;2023-07-31T03:14:40;97650.16;;;16.72;76.24
38912;BME280;28444;48.056;14.408;2023-07-31T03:17:07;97641.88;;;16.72;76.06
38912;BME280;28444;48.056;14.408;2023-07-31T03:19:34;97650.78;;;16.59;76.42
38912;BME280;28444;48.056;14.408;2023-07-31T03:22:00;97655.47;;;16.56;76.85
38912;BME280;28444;48.056;14.408;2023-07-31T03:24:28;97645.50;;;16.51;77.11
38912;BME280;28444;48.056;14.408;2023-07-31T03:26:54;97650.22;;;16.49;77.02
38912;BME280;28444;48.056;14.408;2023-07-31T03:29:21;97653.91;;;16.53;77.59
38912;BME280;28444;48.056;14.408;2023-07-31T03:31:50;97653.06;;;16.51;77.65
38912;BME280;28444;48.056;14.408;2023-07-31T03:34:17;97654.88;;;16.46;77.98
38912;BME280;28444;48.056;14.408;2023-07-31T03:36:43;97658.13;;;16.43;78.47
38912;BME280;28444;48.056;14.408;2023-07-31T03:39:10;97661.59;;;16.31;79.14
38912;BME280;28444;48.056;14.408;2023-07-31T03:41:37;97654.66;;;16.30;78.83
38912;BME280;28444;48.056;14.408;2023-07-31T03:44:03;97653.91;;;16.30;79.92
38912;BME280;28444;48.056;14.408;2023-07-31T03:46:30;97654.66;;;16.30;78.90
38912;BME280;28444;48.056;14.408;2023-07-31T03:48:57;97654.28;;;16.36;78.20
38912;BME280;28444;48.056;14.408;2023-07-31T03:51:23;97657.28;;;16.28;79.15
38912;BME280;28444;48.056;14.408;2023-07-31T03:53:50;97663.28;;;16.25;79.31
38912;BME280;28444;48.056;14.408;2023-07-31T03:56:17;97664.38;;;16.31;78.83
38912;BME280;28444;48.056;14.408;2023-07-31T03:58:43;97660.38;;;16.23;79.46
38912;BME280;28444;48.056;14.408;2023-07-31T04:01:10;97657.53;;;16.21;78.90
38912;BME280;28444;48.056;14.408;2023-07-31T04:03:37;97653.91;;;16.18;78.89
38912;BME280;28444;48.056;14.408;2023-07-31T04:06:03;97654.63;;;16.19;79.20
38912;BME280;28444;48.056;14.408;2023-07-31T04:08:30;97657.38;;;16.19;78.64
38912;BME280;28444;48.056;14.408;2023-07-31T04:10:56;97651.88;;;16.19;79.12
38912;BME280;28444;48.056;14.408;2023-07-31T04:13:23;97654.53;;;16.17;79.55
38912;BME280;28444;48.056;14.408;2023-07-31T04:15:50;97653.44;;;16.22;79.05
38912;BME280;28444;48.056;14.408;2023-07-31T04:18:20;97648.63;;;16.22;79.14
38912;BME280;28444;48.056;14.408;2023-07-31T04:20:47;97650.81;;;16.24;79.25
38912;BME280;28444;48.056;14.408;2023-07-31T04:23:14;97655.25;;;16.29;79.40
38912;BME280;28444;48.056;14.408;2023-07-31T04:25:40;97650.66;;;16.33;78.94
38912;BME280;28444;48.056;14.408;2023-07-31T04:28:07;97650.19;;;16.37;78.92
38912;BME280;28444;48.056;14.408;2023-07-31T04:30:34;97635.56;;;16.23;79.12
38912;BME280;28444;48.056;14.408;2023-07-31T04:33:03;97649.25;;;16.21;78.57
38912;BME280;28444;48.056;14.408;2023-07-31T04:35:29;97643.50;;;16.17;78.79
38912;BME280;28444;48.056;14.408;2023-07-31T04:37:56;97644.78;;;16.16;78.84
38912;BME280;28444;48.056;14.408;2023-07-31T04:40:22;97646.81;;;16.15;79.36
38912;BME280;28444;48.056;14.408;2023-07-31T04:42:49;97641.91;;;16.13;79.33
38912;BME280;28444;48.056;14.408;2023-07-31T04:45:16;97645.88;;;16.10;79.17
38912;BME280;28444;48.056;14.408;2023-07-31T04:47:42;97642.88;;;16.06;80.37
38912;BME280;28444;48.056;14.408;2023-07-31T04:50:09;97653.06;;;16.04;80.02
38912;BME280;28444;48.056;14.408;2023-07-31T04:52:36;97651.88;;;16.07;79.95
38912;BME280;28444;48.056;14.408;2023-07-31T04:55:03;97647.91;;;16.10;79.87
38912;BME280;28444;48.056;14.408;2023-07-31T04:57:29;97652.09;;;16.11;79.94
38912;BME280;28444;48.056;14.408;2023-07-31T04:59:56;97656.44;;;16.14;79.74
38912;BME280;28444;48.056;14.408;2023-07-31T05:02:23;97657.75;;;16.13;79.97
38912;BME280;28444;48.056;14.408;2023-07-31T05:04:51;97658.84;;;16.20;79.36
38912;BME280;28444;48.056;14.408;2023-07-31T05:07:17;97654.53;;;16.17;78.87
38912;BME280;28444;48.056;14.408;2023-07-31T05:09:44;97670.13;;;16.24;79.62
38912;BME280;28444;48.056;14.408;2023-07-31T05:12:11;97661.13;;;16.23;78.86
38912;BME280;28444;48.056;14.408;2023-07-31T05:14:37;97655.72;;;16.25;79.38
38912;BME280;28444;48.056;14.408;2023-07-31T05:17:04;97665.31;;;16.24;78.49
38912;BME280;28444;48.056;14.408;2023-07-31T05:19:30;97668.44;;;16.30;78.47
38912;BME280;28444;48.056;14.408;2023-07-31T05:21:57;97664.13;;;16.39;78.59
38912;BME280;28444;48.056;14.408;2023-07-31T05:24:24;97667.34;;;16.47;78.38
38912;BME280;28444;48.056;14.408;2023-07-31T05:26:50;97668.66;;;16.58;78.35
38912;BME280;28444;48.056;14.408;2023-07-31T05:29:17;97661.94;;;16.73;78.09
38912;BME280;28444;48.056;14.408;2023-07-31T05:31:44;97656.91;;;16.81;77.80
38912;BME280;28444;48.056;14.408;2023-07-31T05:34:10;97660.59;;;16.97;77.46
38912;BME280;28444;48.056;14.408;2023-07-31T05:36:37;97652.72;;;17.17;78.47
38912;BME280;28444;48.056;14.408;2023-07-31T05:39:04;97656.28;;;17.31;77.22
38912;BME280;28444;48.056;14.408;2023-07-31T05:41:35;97649.16;;;17.40;76.28
38912;BME280;28444;48.056;14.408;2023-07-31T05:44:01;97649.59;;;17.48;76.32
38912;BME280;28444;48.056;14.408;2023-07-31T05:46:28;97654.41;;;17.48;76.62
38912;BME280;28444;48.056;14.408;2023-07-31T05:48:55;97649.72;;;17.50;77.25
38912;BME280;28444;48.056;14.408;2023-07-31T05:51:22;97647.56;;;17.49;77.02
38912;BME280;28444;48.056;14.408;2023-07-31T05:53:48;97647.41;;;17.59;77.34
38912;BME280;28444;48.056;14.408;2023-07-31T05:56:15;97649.25;;;17.68;76.49
38912;BME280;28444;48.056;14.408;2023-07-31T05:58:42;97652.25;;;17.72;76.62
38912;BME280;28444;48.056;14.408;2023-07-31T06:01:09;97650.72;;;17.69;77.97
38912;BME280;28444;48.056;14.408;2023-07-31T06:03:35;97646.22;;;17.50;77.14
38912;BME280;28444;48.056;14.408;2023-07-31T06:06:02;97650.22;;;17.47;77.13
38912;BME280;28444;48.056;14.408;2023-07-31T06:08:29;97648.28;;;17.49;77.21
38912;BME280;28444;48.056;14.408;2023-07-31T06:10:55;97638.97;;;17.56;75.88
38912;BME280;28444;48.056;14.408;2023-07-31T06:13:22;97643.41;;;17.62;75.50
38912;BME280;28444;48.056;14.408;2023-07-31T06:15:48;97639.44;;;17.65;77.07
38912;BME280;28444;48.056;14.408;2023-07-31T06:18:15;97634.84;;;17.69;75.19
38912;BME280;28444;48.056;14.408;2023-07-31T06:20:42;97632.41;;;17.75;75.57
38912;BME280;28444;48.056;14.408;2023-07-31T06:23:08;97635.72;;;17.86;74.86
38912;BME280;28444;48.056;14.408;2023-07-31T06:25:35;97634.72;;;17.93;74.29
38912;BME280;28444;48.056;14.408;2023-07-31T06:28:02;97632.16;;;17.97;75.72
38912;BME280;28444;48.056;14.408;2023-07-31T06:30:28;97639.34;;;18.02;74.59
38912;BME280;28444;48.056;14.408;2023-07-31T06:32:55;97636.59;;;18.02;75.03
38912;BME280;28444;48.056;14.408;2023-07-31T06:35:22;97637.63;;;18.09;72.86
38912;BME280;28444;48.056;14.408;2023-07-31T06:37:48;97636.38;;;18.12;70.33
38912;BME280;28444;48.056;14.408;2023-07-31T06:40:15;97639.47;;;18.18;71.60
38912;BME280;28444;48.056;14.408;2023-07-31T06:42:42;97641.00;;;18.21;70.68
38912;BME280;28444;48.056;14.408;2023-07-31T06:45:09;97635.28;;;18.31;70.06
38912;BME280;28444;48.056;14.408;2023-07-31T06:47:36;97637.75;;;18.38;70.18
38912;BME280;28444;48.056;14.408;2023-07-31T06:50:07;97639.50;;;18.45;70.07
38912;BME280;28444;48.056;14.408;2023-07-31T06:52:34;97638.16;;;18.60;71.72
38912;BME280;28444;48.056;14.408;2023-07-31T06:55:15;97645.03;;;18.73;69.53
38912;BME280;28444;48.056;14.408;2023-07-31T06:57:45;97643.28;;;18.80;69.11
38912;BME280;28444;48.056;14.408;2023-07-31T07:00:12;97638.78;;;18.86;67.91
38912;BME280;28444;48.056;14.408;2023-07-31T07:02:39;97636.81;;;18.89;69.11
38912;BME280;28444;48.056;14.408;2023-07-31T07:05:09;97628.56;;;19.05;67.57
38912;BME280;28444;48.056;14.408;2023-07-31T07:07:36;97629.47;;;19.09;65.95
38912;BME280;28444;48.056;14.408;2023-07-31T07:10:03;97621.50;;;19.02;65.18
38912;BME280;28444;48.056;14.408;2023-07-31T07:12:31;97617.06;;;19.10;66.49
38912;BME280;28444;48.056;14.408;2023-07-31T07:14:58;97618.16;;;19.19;66.05
38912;BME280;28444;48.056;14.408;2023-07-31T07:17:26;97622.03;;;19.28;66.04
38912;BME280;28444;48.056;14.408;2023-07-31T07:19:52;97616.38;;;19.39;63.61
38912;BME280;28444;48.056;14.408;2023-07-31T07:22:19;97611.09;;;19.45;64.21
38912;BME280;28444;48.056;14.408;2023-07-31T07:24:46;97607.88;;;19.51;61.39
38912;BME280;28444;48.056;14.408;2023-07-31T07:27:12;97606.00;;;19.56;60.77
38912;BME280;28444;48.056;14.408;2023-07-31T07:29:39;97607.84;;;19.65;59.93
38912;BME280;28444;48.056;14.408;2023-07-31T07:32:06;97605.44;;;19.89;59.45
38912;BME280;28444;48.056;14.408;2023-07-31T07:34:32;97610.81;;;20.01;59.33
38912;BME280;28444;48.056;14.408;2023-07-31T07:36:59;97612.69;;;20.28;59.46
38912;BME280;28444;48.056;14.408;2023-07-31T07:39:26;97601.53;;;20.43;58.56
38912;BME280;28444;48.056;14.408;2023-07-31T07:41:52;97601.50;;;20.75;57.85
38912;BME280;28444;48.056;14.408;2023-07-31T07:44:20;97602.41;;;20.98;57.46
38912;BME280;28444;48.056;14.408;2023-07-31T07:46:47;97611.00;;;21.04;54.95
38912;BME280;28444;48.056;14.408;2023-07-31T07:49:13;97605.34;;;21.02;56.28
38912;BME280;28444;48.056;14.408;2023-07-31T07:51:40;97606.13;;;21.04;54.33
38912;BME280;28444;48.056;14.408;2023-07-31T07:54:07;97597.94;;;20.90;55.43
38912;BME280;28444;48.056;14.408;2023-07-31T07:56:34;97604.66;;;20.67;55.12
38912;BME280;28444;48.056;14.408;2023-07-31T07:59:03;97599.00;;;20.65;54.99
38912;BME280;28444;48.056;14.408;2023-07-31T08:01:30;97605.03;;;20.60;56.08
38912;BME280;28444;48.056;14.408;2023-07-31T08:03:57;97593.06;;;20.73;57.23
38912;BME280;28444;48.056;14.408;2023-07-31T08:06:24;97594.44;;;20.90;58.91
38912;BME280;28444;48.056;14.408;2023-07-31T08:08:51;97593.66;;;21.05;55.71
38912;BME280;28444;48.056;14.408;2023-07-31T08:11:18;97592.00;;;21.16;55.47
38912;BME280;28444;48.056;14.408;2023-07-31T08:13:44;97596.84;;;21.15;57.01
38912;BME280;28444;48.056;14.408;2023-07-31T08:16:11;97591.69;;;21.26;55.22
38912;BME280;28444;48.056;14.408;2023-07-31T08:18:38;97588.84;;;21.42;55.58
38912;BME280;28444;48.056;14.408;2023-07-31T08:21:04;97588.16;;;21.79;55.58
38912;BME280;28444;48.056;14.408;2023-07-31T08:23:31;97589.81;;;21.86;53.41
38912;BME280;28444;48.056;14.408;2023-07-31T08:25:57;97587.25;;;22.12;54.06
38912;BME280;28444;48.056;14.408;2023-07-31T08:28:25;97576.63;;;22.26;54.79
38912;BME280;28444;48.056;14.408;2023-07-31T08:30:52;97583.91;;;22.35;54.83
38912;BME280;28444;48.056;14.408;2023-07-31T08:33:18;97583.41;;;22.21;53.93
38912;BME280;28444;48.056;14.408;2023-07-31T08:35:45;97577.84;;;22.41;53.90
38912;BME280;28444;48.056;14.408;2023-07-31T08:38:12;97584.25;;;22.46;54.03
38912;BME280;28444;48.056;14.408;2023-07-31T08:40:38;97579.63;;;22.32;52.06
38912;BME280;28444;48.056;14.408;2023-07-31T08:43:05;97585.00;;;22.26;52.85
38912;BME280;28444;48.056;14.408;2023-07-31T08:45:32;97581.47;;;22.06;51.93
38912;BME280;28444;48.056;14.408;2023-07-31T08:47:59;97582.56;;;22.17;52.72
38912;BME280;28444;48.056;14.408;2023-07-31T08:50:26;97585.56;;;22.23;51.85
38912;BME280;28444;48.056;14.408;2023-07-31T08:52:54;97580.56;;;22.19;52.78
38912;BME280;28444;48.056;14.408;2023-07-31T08:55:24;97573.91;;;22.28;51.36
38912;BME280;28444;48.056;14.408;2023-07-31T08:57:52;97574.69;;;22.31;52.39
38912;BME280;28444;48.056;14.408;2023-07-31T09:00:22;97573.69;;;22.42;52.98
38912;BME280;28444;48.056;14.408;2023-07-31T09:03:03;97565.59;;;22.50;52.81
38912;BME280;28444;48.056;14.408;2023-07-31T09:05:31;97559.09;;;22.44;51.56
38912;BME280;28444;48.056;14.408;2023-07-31T09:07:58;97562.66;;;22.66;54.74
38912;BME280;28444;48.056;14.408;2023-07-31T09:10:24;97550.97;;;22.92;53.03
38912;BME280;28444;48.056;14.408;2023-07-31T09:12:51;97559.69;;;23.04;51.70
38912;BME280;28444;48.056;14.408;2023-07-31T09:15:19;97555.34;;;22.77;50.50
38912;BME280;28444;48.056;14.408;2023-07-31T09:18:05;97546.97;;;22.55;51.32
38912;BME280;28444;48.056;14.408;2023-07-31T09:20:32;97547.72;;;22.57;51.82
38912;BME280;28444;48.056;14.408;2023-07-31T09:23:07;97543.19;;;22.68;51.32
38912;BME280;28444;48.056;14.408;2023-07-31T09:25:34;97543.88;;;22.67;52.11
38912;BME280;28444;48.056;14.408;2023-07-31T09:28:03;97542.41;;;22.66;51.48
38912;BME280;28444;48.056;14.408;2023-07-31T09:30:32;97539.06;;;22.69;51.99
38912;BME280;28444;48.056;14.408;2023-07-31T09:33:10;97534.53;;;23.02;51.19
38912;BME280;28444;48.056;14.408;2023-07-31T09:35:37;97531.06;;;23.25;51.58
38912;BME280;28444;48.056;14.408;2023-07-31T09:38:12;97527.06;;;23.09;52.62
38912;BME280;28444;48.056;14.408;2023-07-31T09:40:41;97521.16;;;23.20;51.24
38912;BME280;28444;48.056;14.408;2023-07-31T09:43:12;97530.16;;;23.19;49.92
38912;BME280;28444;48.056;14.408;2023-07-31T09:45:43;97530.56;;;23.09;50.85
38912;BME280;28444;48.056;14.408;2023-07-31T09:48:16;97528.50;;;23.10;52.43
38912;BME280;28444;48.056;14.408;2023-07-31T09:50:47;97522.19;;;23.09;53.55
38912;BME280;28444;48.056;14.408;2023-07-31T09:53:15;97524.00;;;23.22;52.62
38912;BME280;28444;48.056;14.408;2023-07-31T09:55:43;97523.66;;;23.10;51.34
38912;BME280;28444;48.056;14.408;2023-07-31T09:58:11;97515.28;;;22.88;50.74
38912;BME280;28444;48.056;14.408;2023-07-31T10:00:38;97511.78;;;22.88;51.50
38912;BME280;28444;48.056;14.408;2023-07-31T10:03:09;97508.00;;;22.79;53.31
38912;BME280;28444;48.056;14.408;2023-07-31T10:05:40;97508.47;;;22.71;52.33
38912;BME280;28444;48.056;14.408;2023-07-31T10:08:09;97507.69;;;22.69;55.56
38912;BME280;28444;48.056;14.408;2023-07-31T10:10:37;97501.84;;;22.39;53.34
38912;BME280;28444;48.056;14.408;2023-07-31T10:13:07;97495.50;;;22.36;53.92
38912;BME280;28444;48.056;14.408;2023-07-31T10:15:35;97492.34;;;22.46;53.76
38912;BME280;28444;48.056;14.408;2023-07-31T10:18:05;97488.84;;;22.45;53.67
38912;BME280;28444;48.056;14.408;2023-07-31T10:20:34;97493.00;;;22.44;54.22
38912;BME280;28444;48.056;14.408;2023-07-31T10:23:01;97489.28;;;22.38;54.19
38912;BME280;28444;48.056;14.408;2023-07-31T10:25:29;97491.50;;;22.41;53.41
38912;BME280;28444;48.056;14.408;2023-07-31T10:27:57;97483.16;;;22.41;57.46
38912;BME280;28444;48.056;14.408;2023-07-31T10:30:29;97485.72;;;22.57;55.22
38912;BME280;28444;48.056;14.408;2023-07-31T10:32:57;97476.53;;;22.74;54.00
38912;BME280;28444;48.056;14.408;2023-07-31T10:35:24;97475.88;;;22.76;55.66
38912;BME280;28444;48.056;14.408;2023-07-31T10:37:52;97474.53;;;22.77;53.91
38912;BME280;28444;48.056;14.408;2023-07-31T10:40:23;97469.78;;;22.81;58.96
38912;BME280;28444;48.056;14.408;2023-07-31T10:42:59;97475.03;;;22.93;54.78
38912;BME280;28444;48.056;14.408;2023-07-31T10:45:39;97465.81;;;23.11;54.61
38912;BME280;28444;48.056;14.408;2023-07-31T10:48:16;97459.03;;;23.18;52.01
38912;BME280;28444;48.056;14.408;2023-07-31T10:50:50;97459.63;;;23.14;54.96
38912;BME280;28444;48.056;14.408;2023-07-31T10:53:30;97456.31;;;22.96;54.84
38912;BME280;28444;48.056;14.408;2023-07-31T10:56:01;97454.44;;;22.80;54.23
38912;BME280;28444;48.056;14.408;2023-07-31T10:58:28;97447.84;;;22.70;52.42
38912;BME280;28444;48.056;14.408;2023-07-31T11:00:56;97443.81;;;22.53;53.25
38912;BME280;28444;48.056;14.408;2023-07-31T11:03:41;97436.25;;;22.55;51.68
38912;BME280;28444;48.056;14.408;2023-07-31T11:06:11;97431.88;;;22.72;53.89
38912;BME280;28444;48.056;14.408;2023-07-31T11:08:50;97435.13;;;22.65;52.95
38912;BME280;28444;48.056;14.408;2023-07-31T11:11:19;97431.56;;;22.84;55.85
38912;BME280;28444;48.056;14.408;2023-07-31T11:13:50;97424.34;;;22.99;54.57
38912;BME280;28444;48.056;14.408;2023-07-31T11:16:25;97424.03;;;23.13;52.55
38912;BME280;28444;48.056;14.408;2023-07-31T11:18:52;97418.81;;;23.25;52.67
38912;BME280;28444;48.056;14.408;2023-07-31T11:21:22;97407.88;;;23.33;52.93
38912;BME280;28444;48.056;14.408;2023-07-31T11:23:53;97412.19;;;23.38;56.64
38912;BME280;28444;48.056;14.408;2023-07-31T11:26:24;97415.53;;;23.33;51.47
38912;BME280;28444;48.056;14.408;2023-07-31T11:28:50;97412.75;;;23.09;51.90
38912;BME280;28444;48.056;14.408;2023-07-31T11:31:18;97417.59;;;23.06;51.66
38912;BME280;28444;48.056;14.408;2023-07-31T11:33:45;97412.19;;;22.90;52.21
38912;BME280;28444;48.056;14.408;2023-07-31T11:36:19;97407.63;;;22.99;52.67
38912;BME280;28444;48.056;14.408;2023-07-31T11:38:47;97407.78;;;23.05;56.22
38912;BME280;28444;48.056;14.408;2023-07-31T11:41:15;97394.47;;;23.27;54.07
38912;BME280;28444;48.056;14.408;2023-07-31T11:43:48;97401.81;;;23.41;54.36
38912;BME280;28444;48.056;14.408;2023-07-31T11:46:14;97393.56;;;23.45;52.24
38912;BME280;28444;48.056;14.408;2023-07-31T11:48:42;97388.31;;;23.57;49.89
38912;BME280;28444;48.056;14.408;2023-07-31T11:51:12;97392.63;;;23.62;50.97
38912;BME280;28444;48.056;14.408;2023-07-31T11:53:49;97388.94;;;23.82;50.62
38912;BME280;28444;48.056;14.408;2023-07-31T11:56:18;97394.03;;;23.89;51.10
38912;BME280;28444;48.056;14.408;2023-07-31T11:58:47;97379.63;;;23.99;55.85
38912;BME280;28444;48.056;14.408;2023-07-31T12:01:15;97379.53;;;23.95;51.02
38912;BME280;28444;48.056;14.408;2023-07-31T12:03:45;97375.16;;;23.88;51.16
38912;BME280;28444;48.056;14.408;2023-07-31T12:06:12;97369.78;;;23.96;51.65
38912;BME280;28444;48.056;14.408;2023-07-31T12:08:39;97375.84;;;24.16;55.23
38912;BME280;28444;48.056;14.408;2023-07-31T12:11:08;97366.91;;;24.22;53.76
38912;BME280;28444;48.056;14.408;2023-07-31T12:13:38;97369.84;;;24.28;51.06
38912;BME280;28444;48.056;14.408;2023-07-31T12:16:04;97365.81;;;24.35;50.40
38912;BME280;28444;48.056;14.408;2023-07-31T12:18:36;97370.69;;;24.35;53.30
38912;BME280;28444;48.056;14.408;2023-07-31T12:21:06;97367.63;;;24.22;51.48
38912;BME280;28444;48.056;14.408;2023-07-31T12:23:34;97352.97;;;24.52;49.78
38912;BME280;28444;48.056;14.408;2023-07-31T12:26:08;97345.75;;;24.43;49.55
38912;BME280;28444;48.056;14.408;2023-07-31T12:31:16;97333.75;;;24.38;50.91
38912;BME280;28444;48.056;14.408;2023-07-31T12:33:47;97329.44;;;24.01;51.84
38912;BME280;28444;48.056;14.408;2023-07-31T12:36:17;97332.78;;;23.95;50.83
38912;BME280;28444;48.056;14.408;2023-07-31T12:38:44;97320.38;;;24.02;51.41
38912;BME280;28444;48.056;14.408;2023-07-31T12:41:11;97324.78;;;24.12;52.29
38912;BME280;28444;48.056;14.408;2023-07-31T12:43:40;97320.19;;;23.94;49.79
38912;BME280;28444;48.056;14.408;2023-07-31T12:46:08;97322.84;;;24.18;51.16
38912;BME280;28444;48.056;14.408;2023-07-31T12:48:35;97323.56;;;24.19;50.02
38912;BME280;28444;48.056;14.408;2023-07-31T12:51:02;97316.97;;;24.06;51.28
38912;BME280;28444;48.056;14.408;2023-07-31T12:53:29;97312.91;;;24.11;51.59
38912;BME280;28444;48.056;14.408;2023-07-31T12:55:56;97305.19;;;24.10;51.73
38912;BME280;28444;48.056;14.408;2023-07-31T12:58:23;97301.78;;;24.13;53.51
38912;BME280;28444;48.056;14.408;2023-07-31T13:00:50;97286.72;;;24.26;51.24
38912;BME280;28444;48.056;14.408;2023-07-31T13:03:17;97291.16;;;24.38;54.12
38912;BME280;28444;48.056;14.408;2023-07-31T13:05:45;97289.69;;;24.35;51.83